Terminal Aerodrome Forecast
Issued by NWS Melbourne, FL

Home | Current Version | Previous Version | Text Only | Print | Product List | Glossary On
Versions: 1 2 3 4 5 6 7 8 9 10 11 12 13 14 15 16 17 18 19 20 21 22 23 24 25 26 27 28 29 30 31
000
FTUS42 KMLB 051120
TAFMCO
TAF
KMCO 051120Z 0512/0612 00000KT P6SM SCT250
     FM051400 18005KT P6SM SCT030 SCT080
     FM051900 13008KT P6SM VCTS SCT040CB BKN080
      TEMPO 0520/0523 3SM TSRA BKN020CB OVC040
     FM060000 12005KT P6SM SCT050 OVC120
     FM060600 00000KT P6SM SCT120 BKN250=

USA.gov is the U.S. government's official web portal to all federal, state and local government web resources and services.